sensor_id;sensor_type;location;lat;lon;timestamp;temperature;humidity
15357;DHT22;7778;48.792;9.260;2023-04-09T00:02:15;8.30;99.90
15357;DHT22;7778;48.792;9.260;2023-04-09T00:05:01;8.30;99.90
15357;DHT22;7778;48.792;9.260;2023-04-09T00:07:47;8.30;99.90
15357;DHT22;7778;48.792;9.260;2023-04-09T00:10:32;8.30;99.90
15357;DHT22;7778;48.792;9.260;2023-04-09T00:13:20;8.30;99.90
15357;DHT22;7778;48.792;9.260;2023-04-09T00:16:06;8.40;99.90
15357;DHT22;7778;48.792;9.260;2023-04-09T00:18:52;8.30;99.90
15357;DHT22;7778;48.792;9.260;2023-04-09T00:21:38;8.40;99.90
15357;DHT22;7778;48.792;9.260;2023-04-09T00:24:23;8.40;99.90
15357;DHT22;7778;48.792;9.260;2023-04-09T00:27:09;8.30;99.90
15357;DHT22;7778;48.792;9.260;2023-04-09T00:29:56;8.30;99.90
15357;DHT22;7778;48.792;9.260;2023-04-09T00:32:41;8.20;99.90
15357;DHT22;7778;48.792;9.260;2023-04-09T00:35:27;8.20;99.90
15357;DHT22;7778;48.792;9.260;2023-04-09T00:38:13;8.20;99.90
15357;DHT22;7778;48.792;9.260;2023-04-09T00:40:58;8.30;99.90
15357;DHT22;7778;48.792;9.260;2023-04-09T00:43:44;8.20;99.90
15357;DHT22;7778;48.792;9.260;2023-04-09T00:46:31;8.30;99.90
15357;DHT22;7778;48.792;9.260;2023-04-09T00:49:17;8.30;99.90
15357;DHT22;7778;48.792;9.260;2023-04-09T00:52:03;8.20;99.90
15357;DHT22;7778;48.792;9.260;2023-04-09T00:54:50;8.20;99.90
15357;DHT22;7778;48.792;9.260;2023-04-09T00:57:36;8.20;99.90
15357;DHT22;7778;48.792;9.260;2023-04-09T01:00:22;8.10;99.90
15357;DHT22;7778;48.792;9.260;2023-04-09T01:03:10;8.10;99.90
15357;DHT22;7778;48.792;9.260;2023-04-09T01:06:02;8.20;99.90
15357;DHT22;7778;48.792;9.260;2023-04-09T01:08:56;8.20;99.90
15357;DHT22;7778;48.792;9.260;2023-04-09T01:11:53;8.00;99.90
15357;DHT22;7778;48.792;9.260;2023-04-09T01:14:56;7.90;99.90
15357;DHT22;7778;48.792;9.260;2023-04-09T01:17:51;7.90;99.90
15357;DHT22;7778;48.792;9.260;2023-04-09T01:20:41;7.70;99.90
15357;DHT22;7778;48.792;9.260;2023-04-09T01:23:36;7.60;99.90
15357;DHT22;7778;48.792;9.260;2023-04-09T01:26:37;7.60;99.90
15357;DHT22;7778;48.792;9.260;2023-04-09T01:29:32;7.50;99.90
15357;DHT22;7778;48.792;9.260;2023-04-09T01:32:20;7.50;99.90
15357;DHT22;7778;48.792;9.260;2023-04-09T01:35:08;7.40;99.90
15357;DHT22;7778;48.792;9.260;2023-04-09T01:37:54;7.30;99.90
15357;DHT22;7778;48.792;9.260;2023-04-09T01:40:41;7.40;99.90
15357;DHT22;7778;48.792;9.260;2023-04-09T01:43:27;7.60;99.90
15357;DHT22;7778;48.792;9.260;2023-04-09T01:46:15;7.70;99.90
15357;DHT22;7778;48.792;9.260;2023-04-09T01:49:00;7.60;99.90
15357;DHT22;7778;48.792;9.260;2023-04-09T01:51:47;7.80;99.90
15357;DHT22;7778;48.792;9.260;2023-04-09T01:54:33;7.80;99.90
15357;DHT22;7778;48.792;9.260;2023-04-09T01:57:19;7.90;99.90
15357;DHT22;7778;48.792;9.260;2023-04-09T02:00:06;7.90;99.90
15357;DHT22;7778;48.792;9.260;2023-04-09T02:03:01;7.90;99.90
15357;DHT22;7778;48.792;9.260;2023-04-09T02:05:56;7.90;99.90
15357;DHT22;7778;48.792;9.260;2023-04-09T02:08:48;8.00;99.90
15357;DHT22;7778;48.792;9.260;2023-04-09T02:11:37;7.90;99.90
15357;DHT22;7778;48.792;9.260;2023-04-09T02:14:26;7.90;99.90
15357;DHT22;7778;48.792;9.260;2023-04-09T02:17:13;7.90;99.90
15357;DHT22;7778;48.792;9.260;2023-04-09T02:20:00;7.90;99.90
15357;DHT22;7778;48.792;9.260;2023-04-09T02:22:46;7.80;99.90
15357;DHT22;7778;48.792;9.260;2023-04-09T02:25:31;8.00;99.90
15357;DHT22;7778;48.792;9.260;2023-04-09T02:28:17;7.80;99.90
15357;DHT22;7778;48.792;9.260;2023-04-09T02:31:05;7.40;99.90
15357;DHT22;7778;48.792;9.260;2023-04-09T02:33:51;7.20;99.90
15357;DHT22;7778;48.792;9.260;2023-04-09T02:36:38;7.10;99.90
15357;DHT22;7778;48.792;9.260;2023-04-09T02:39:24;7.00;99.90
15357;DHT22;7778;48.792;9.260;2023-04-09T02:42:10;7.00;99.90
15357;DHT22;7778;48.792;9.260;2023-04-09T02:44:55;6.90;99.90
15357;DHT22;7778;48.792;9.260;2023-04-09T02:47:41;6.80;99.90
15357;DHT22;7778;48.792;9.260;2023-04-09T02:50:26;6.80;99.90
15357;DHT22;7778;48.792;9.260;2023-04-09T02:53:13;6.80;99.90
15357;DHT22;7778;48.792;9.260;2023-04-09T02:55:59;7.10;99.90
15357;DHT22;7778;48.792;9.260;2023-04-09T02:58:45;7.00;99.90
15357;DHT22;7778;48.792;9.260;2023-04-09T03:01:32;7.10;99.90
15357;DHT22;7778;48.792;9.260;2023-04-09T03:04:18;7.20;99.90
15357;DHT22;7778;48.792;9.260;2023-04-09T03:07:03;7.50;99.90
15357;DHT22;7778;48.792;9.260;2023-04-09T03:09:51;7.30;99.90
15357;DHT22;7778;48.792;9.260;2023-04-09T03:12:36;7.40;99.90
15357;DHT22;7778;48.792;9.260;2023-04-09T03:15:21;7.30;99.90
15357;DHT22;7778;48.792;9.260;2023-04-09T03:18:07;7.40;99.90
15357;DHT22;7778;48.792;9.260;2023-04-09T03:20:53;7.50;99.90
15357;DHT22;7778;48.792;9.260;2023-04-09T03:23:38;7.80;99.90
15357;DHT22;7778;48.792;9.260;2023-04-09T03:26:25;7.70;99.90
15357;DHT22;7778;48.792;9.260;2023-04-09T03:29:11;7.70;99.90
15357;DHT22;7778;48.792;9.260;2023-04-09T03:31:56;7.70;99.90
15357;DHT22;7778;48.792;9.260;2023-04-09T03:34:42;7.70;99.90
15357;DHT22;7778;48.792;9.260;2023-04-09T03:37:27;7.70;99.90
15357;DHT22;7778;48.792;9.260;2023-04-09T03:40:13;7.70;99.90
15357;DHT22;7778;48.792;9.260;2023-04-09T03:43:00;7.70;99.90
15357;DHT22;7778;48.792;9.260;2023-04-09T03:45:47;7.70;99.90
15357;DHT22;7778;48.792;9.260;2023-04-09T03:48:32;7.70;99.90
15357;DHT22;7778;48.792;9.260;2023-04-09T03:51:18;7.70;99.90
15357;DHT22;7778;48.792;9.260;2023-04-09T03:54:06;7.60;99.90
15357;DHT22;7778;48.792;9.260;2023-04-09T03:56:51;7.60;99.90
15357;DHT22;7778;48.792;9.260;2023-04-09T03:59:38;7.60;99.90
15357;DHT22;7778;48.792;9.260;2023-04-09T04:02:24;7.50;99.90
15357;DHT22;7778;48.792;9.260;2023-04-09T04:05:10;7.50;99.90
15357;DHT22;7778;48.792;9.260;2023-04-09T04:07:57;7.50;99.90
15357;DHT22;7778;48.792;9.260;2023-04-09T04:10:43;7.50;99.90
15357;DHT22;7778;48.792;9.260;2023-04-09T04:13:28;7.50;99.90
15357;DHT22;7778;48.792;9.260;2023-04-09T04:16:15;7.40;99.90
15357;DHT22;7778;48.792;9.260;2023-04-09T04:19:00;7.50;99.90
15357;DHT22;7778;48.792;9.260;2023-04-09T04:21:46;7.40;99.90
15357;DHT22;7778;48.792;9.260;2023-04-09T04:24:31;7.40;99.90
15357;DHT22;7778;48.792;9.260;2023-04-09T04:27:17;7.40;99.90
15357;DHT22;7778;48.792;9.260;2023-04-09T04:30:03;7.30;99.90
15357;DHT22;7778;48.792;9.260;2023-04-09T04:32:51;7.30;99.90
15357;DHT22;7778;48.792;9.260;2023-04-09T04:35:37;7.40;99.90
15357;DHT22;7778;48.792;9.260;2023-04-09T04:38:22;7.40;99.90
15357;DHT22;7778;48.792;9.260;2023-04-09T04:41:09;7.30;99.90
15357;DHT22;7778;48.792;9.260;2023-04-09T04:43:55;7.30;99.90
15357;DHT22;7778;48.792;9.260;2023-04-09T04:46:41;7.40;99.90
15357;DHT22;7778;48.792;9.260;2023-04-09T04:49:27;7.40;99.90
15357;DHT22;7778;48.792;9.260;2023-04-09T04:52:13;7.40;99.90
15357;DHT22;7778;48.792;9.260;2023-04-09T04:54:58;7.40;99.90
15357;DHT22;7778;48.792;9.260;2023-04-09T04:57:44;7.30;99.90
15357;DHT22;7778;48.792;9.260;2023-04-09T05:00:29;7.30;99.90
15357;DHT22;7778;48.792;9.260;2023-04-09T05:03:15;7.30;99.90
15357;DHT22;7778;48.792;9.260;2023-04-09T05:06:02;7.30;99.90
15357;DHT22;7778;48.792;9.260;2023-04-09T05:08:48;7.30;99.90
15357;DHT22;7778;48.792;9.260;2023-04-09T05:11:33;7.50;99.90
15357;DHT22;7778;48.792;9.260;2023-04-09T05:14:23;7.50;99.90
15357;DHT22;7778;48.792;9.260;2023-04-09T05:17:09;7.50;99.90
15357;DHT22;7778;48.792;9.260;2023-04-09T05:19:54;7.50;99.90
15357;DHT22;7778;48.792;9.260;2023-04-09T05:22:42;7.40;99.90
15357;DHT22;7778;48.792;9.260;2023-04-09T05:25:27;7.30;99.90
15357;DHT22;7778;48.792;9.260;2023-04-09T05:28:13;7.30;99.90
15357;DHT22;7778;48.792;9.260;2023-04-09T05:31:00;7.30;99.90
15357;DHT22;7778;48.792;9.260;2023-04-09T05:33:45;7.40;99.90
15357;DHT22;7778;48.792;9.260;2023-04-09T05:36:31;7.50;99.90
15357;DHT22;7778;48.792;9.260;2023-04-09T05:39:18;7.50;99.90
15357;DHT22;7778;48.792;9.260;2023-04-09T05:42:03;7.50;99.90
15357;DHT22;7778;48.792;9.260;2023-04-09T05:44:49;7.60;99.90
15357;DHT22;7778;48.792;9.260;2023-04-09T05:47:35;7.80;99.90
15357;DHT22;7778;48.792;9.260;2023-04-09T05:50:20;7.80;99.90
15357;DHT22;7778;48.792;9.260;2023-04-09T05:53:06;7.90;99.90
15357;DHT22;7778;48.792;9.260;2023-04-09T05:55:53;8.10;99.90
15357;DHT22;7778;48.792;9.260;2023-04-09T05:58:39;8.40;99.90
15357;DHT22;7778;48.792;9.260;2023-04-09T06:01:24;9.00;99.90
15357;DHT22;7778;48.792;9.260;2023-04-09T06:04:10;9.20;99.90
15357;DHT22;7778;48.792;9.260;2023-04-09T06:06:55;9.40;99.90
15357;DHT22;7778;48.792;9.260;2023-04-09T06:09:43;9.30;99.90
15357;DHT22;7778;48.792;9.260;2023-04-09T06:12:33;9.20;99.90
15357;DHT22;7778;48.792;9.260;2023-04-09T06:15:19;9.20;99.90
15357;DHT22;7778;48.792;9.260;2023-04-09T06:18:05;9.10;99.90
15357;DHT22;7778;48.792;9.260;2023-04-09T06:21:00;9.10;99.90
15357;DHT22;7778;48.792;9.260;2023-04-09T06:23:46;8.90;99.90
15357;DHT22;7778;48.792;9.260;2023-04-09T06:26:31;10.00;99.90
15357;DHT22;7778;48.792;9.260;2023-04-09T06:29:18;11.00;99.90
15357;DHT22;7778;48.792;9.260;2023-04-09T06:32:04;12.10;99.90
15357;DHT22;7778;48.792;9.260;2023-04-09T06:34:50;11.80;99.90
15357;DHT22;7778;48.792;9.260;2023-04-09T06:37:36;11.90;99.90
15357;DHT22;7778;48.792;9.260;2023-04-09T06:40:21;12.80;99.90
15357;DHT22;7778;48.792;9.260;2023-04-09T06:43:06;13.70;99.90
15357;DHT22;7778;48.792;9.260;2023-04-09T06:45:54;13.90;99.90
15357;DHT22;7778;48.792;9.260;2023-04-09T06:48:39;13.50;99.90
15357;DHT22;7778;48.792;9.260;2023-04-09T06:51:25;14.10;99.90
15357;DHT22;7778;48.792;9.260;2023-04-09T06:54:11;13.50;99.90
15357;DHT22;7778;48.792;9.260;2023-04-09T06:56:56;13.60;99.90
15357;DHT22;7778;48.792;9.260;2023-04-09T06:59:42;14.80;99.90
15357;DHT22;7778;48.792;9.260;2023-04-09T07:02:29;16.00;99.90
15357;DHT22;7778;48.792;9.260;2023-04-09T07:05:15;15.30;99.90
15357;DHT22;7778;48.792;9.260;2023-04-09T07:08:00;14.90;99.90
15357;DHT22;7778;48.792;9.260;2023-04-09T07:10:47;14.40;99.90
15357;DHT22;7778;48.792;9.260;2023-04-09T07:13:33;13.90;99.90
15357;DHT22;7778;48.792;9.260;2023-04-09T07:16:18;14.00;99.90
15357;DHT22;7778;48.792;9.260;2023-04-09T07:19:05;14.90;99.90
15357;DHT22;7778;48.792;9.260;2023-04-09T07:21:54;16.00;99.90
15357;DHT22;7778;48.792;9.260;2023-04-09T07:24:39;16.40;99.90
15357;DHT22;7778;48.792;9.260;2023-04-09T07:27:26;16.40;99.90
15357;DHT22;7778;48.792;9.260;2023-04-09T07:30:13;16.40;99.90
15357;DHT22;7778;48.792;9.260;2023-04-09T07:32:58;16.90;99.90
15357;DHT22;7778;48.792;9.260;2023-04-09T07:35:45;17.00;99.90
15357;DHT22;7778;48.792;9.260;2023-04-09T07:38:31;17.40;99.90
15357;DHT22;7778;48.792;9.260;2023-04-09T07:41:16;16.60;99.90
15357;DHT22;7778;48.792;9.260;2023-04-09T07:44:02;15.40;99.90
15357;DHT22;7778;48.792;9.260;2023-04-09T07:46:49;12.70;99.90
15357;DHT22;7778;48.792;9.260;2023-04-09T07:49:35;11.30;99.90
15357;DHT22;7778;48.792;9.260;2023-04-09T07:52:22;12.50;99.90
15357;DHT22;7778;48.792;9.260;2023-04-09T07:55:08;14.00;99.90
15357;DHT22;7778;48.792;9.260;2023-04-09T07:57:54;14.20;99.90
15357;DHT22;7778;48.792;9.260;2023-04-09T08:00:39;14.80;99.90
15357;DHT22;7778;48.792;9.260;2023-04-09T08:03:25;15.80;99.90
15357;DHT22;7778;48.792;9.260;2023-04-09T08:06:10;15.10;99.90
15357;DHT22;7778;48.792;9.260;2023-04-09T08:08:57;13.90;99.90
15357;DHT22;7778;48.792;9.260;2023-04-09T08:11:43;12.70;99.90
15357;DHT22;7778;48.792;9.260;2023-04-09T08:14:30;12.50;99.90
15357;DHT22;7778;48.792;9.260;2023-04-09T08:17:16;12.00;99.90
15357;DHT22;7778;48.792;9.260;2023-04-09T08:20:02;12.20;99.90
15357;DHT22;7778;48.792;9.260;2023-04-09T08:22:47;13.00;99.90
15357;DHT22;7778;48.792;9.260;2023-04-09T08:25:34;14.60;99.90
15357;DHT22;7778;48.792;9.260;2023-04-09T08:28:19;15.80;99.90
15357;DHT22;7778;48.792;9.260;2023-04-09T08:31:05;16.00;99.90
15357;DHT22;7778;48.792;9.260;2023-04-09T08:33:50;15.70;99.90
15357;DHT22;7778;48.792;9.260;2023-04-09T08:36:36;15.90;99.90
15357;DHT22;7778;48.792;9.260;2023-04-09T08:39:22;16.70;99.90
15357;DHT22;7778;48.792;9.260;2023-04-09T08:42:10;16.00;99.90
15357;DHT22;7778;48.792;9.260;2023-04-09T08:44:56;14.70;99.90
15357;DHT22;7778;48.792;9.260;2023-04-09T08:47:42;13.30;99.90
15357;DHT22;7778;48.792;9.260;2023-04-09T08:50:30;13.00;99.90
15357;DHT22;7778;48.792;9.260;2023-04-09T08:53:17;14.10;99.90
15357;DHT22;7778;48.792;9.260;2023-04-09T08:56:05;14.50;99.90
15357;DHT22;7778;48.792;9.260;2023-04-09T08:58:53;15.00;99.90
15357;DHT22;7778;48.792;9.260;2023-04-09T09:01:41;15.10;99.90
15357;DHT22;7778;48.792;9.260;2023-04-09T09:04:43;15.80;99.90
15357;DHT22;7778;48.792;9.260;2023-04-09T09:07:30;14.90;99.90
15357;DHT22;7778;48.792;9.260;2023-04-09T09:10:17;13.90;99.90
15357;DHT22;7778;48.792;9.260;2023-04-09T09:13:16;12.90;99.90
15357;DHT22;7778;48.792;9.260;2023-04-09T09:16:13;12.20;99.90
15357;DHT22;7778;48.792;9.260;2023-04-09T09:18:59;11.90;99.90
15357;DHT22;7778;48.792;9.260;2023-04-09T09:21:54;11.90;99.90
15357;DHT22;7778;48.792;9.260;2023-04-09T09:24:45;12.00;99.90
15357;DHT22;7778;48.792;9.260;2023-04-09T09:27:33;11.90;99.90
15357;DHT22;7778;48.792;9.260;2023-04-09T09:30:23;11.90;99.90
15357;DHT22;7778;48.792;9.260;2023-04-09T09:33:12;12.60;99.90
15357;DHT22;7778;48.792;9.260;2023-04-09T09:35:58;14.90;99.90
15357;DHT22;7778;48.792;9.260;2023-04-09T09:38:55;15.30;99.90
15357;DHT22;7778;48.792;9.260;2023-04-09T09:41:42;15.00;99.90
15357;DHT22;7778;48.792;9.260;2023-04-09T09:44:32;13.80;99.90
15357;DHT22;7778;48.792;9.260;2023-04-09T09:47:19;14.20;99.90
15357;DHT22;7778;48.792;9.260;2023-04-09T09:50:08;16.70;99.90
15357;DHT22;7778;48.792;9.260;2023-04-09T09:53:00;17.60;99.00
15357;DHT22;7778;48.792;9.260;2023-04-09T09:55:48;16.10;99.90
15357;DHT22;7778;48.792;9.260;2023-04-09T09:58:39;17.00;98.60
15357;DHT22;7778;48.792;9.260;2023-04-09T10:01:26;16.40;96.70
15357;DHT22;7778;48.792;9.260;2023-04-09T10:04:13;16.20;97.30
15357;DHT22;7778;48.792;9.260;2023-04-09T10:07:03;16.80;95.50
15357;DHT22;7778;48.792;9.260;2023-04-09T10:09:52;17.40;97.50
15357;DHT22;7778;48.792;9.260;2023-04-09T10:12:38;17.90;93.10
15357;DHT22;7778;48.792;9.260;2023-04-09T10:15:25;17.50;91.10
15357;DHT22;7778;48.792;9.260;2023-04-09T10:18:14;16.30;92.70
15357;DHT22;7778;48.792;9.260;2023-04-09T10:21:04;14.80;96.70
15357;DHT22;7778;48.792;9.260;2023-04-09T10:23:55;14.30;94.80
15357;DHT22;7778;48.792;9.260;2023-04-09T10:26:41;13.70;95.30
15357;DHT22;7778;48.792;9.260;2023-04-09T10:29:28;13.10;93.90
15357;DHT22;7778;48.792;9.260;2023-04-09T10:32:18;13.50;96.90
15357;DHT22;7778;48.792;9.260;2023-04-09T10:35:08;13.60;93.90
15357;DHT22;7778;48.792;9.260;2023-04-09T10:37:54;12.70;94.30
15357;DHT22;7778;48.792;9.260;2023-04-09T10:40:46;12.50;94.90
15357;DHT22;7778;48.792;9.260;2023-04-09T10:43:34;12.80;96.90
15357;DHT22;7778;48.792;9.260;2023-04-09T10:46:27;13.50;97.40
15357;DHT22;7778;48.792;9.260;2023-04-09T10:49:16;13.60;98.00
15357;DHT22;7778;48.792;9.260;2023-04-09T10:52:04;13.30;95.80
15357;DHT22;7778;48.792;9.260;2023-04-09T10:54:50;12.70;96.20
15357;DHT22;7778;48.792;9.260;2023-04-09T10:57:37;13.00;96.60
15357;DHT22;7778;48.792;9.260;2023-04-09T11:00:23;13.10;97.00
15357;DHT22;7778;48.792;9.260;2023-04-09T11:03:19;13.30;97.10
15357;DHT22;7778;48.792;9.260;2023-04-09T11:06:07;13.20;97.70
15357;DHT22;7778;48.792;9.260;2023-04-09T11:08:54;13.40;96.90
15357;DHT22;7778;48.792;9.260;2023-04-09T11:11:51;14.20;94.50
15357;DHT22;7778;48.792;9.260;2023-04-09T11:14:38;14.10;94.30
15357;DHT22;7778;48.792;9.260;2023-04-09T11:17:24;14.10;94.90
15357;DHT22;7778;48.792;9.260;2023-04-09T11:20:10;13.80;96.00
15357;DHT22;7778;48.792;9.260;2023-04-09T11:22:58;14.10;99.80
15357;DHT22;7778;48.792;9.260;2023-04-09T11:25:48;14.40;95.70
15357;DHT22;7778;48.792;9.260;2023-04-09T11:28:35;14.50;96.10
15357;DHT22;7778;48.792;9.260;2023-04-09T11:31:27;15.10;94.90
15357;DHT22;7778;48.792;9.260;2023-04-09T11:34:13;15.20;92.40
15357;DHT22;7778;48.792;9.260;2023-04-09T11:36:59;15.60;92.30
15357;DHT22;7778;48.792;9.260;2023-04-09T11:39:49;15.90;88.80
15357;DHT22;7778;48.792;9.260;2023-04-09T11:42:38;15.50;91.10
15357;DHT22;7778;48.792;9.260;2023-04-09T11:45:26;15.40;91.10
15357;DHT22;7778;48.792;9.260;2023-04-09T11:48:14;15.60;90.60
15357;DHT22;7778;48.792;9.260;2023-04-09T11:51:01;15.70;92.70
15357;DHT22;7778;48.792;9.260;2023-04-09T11:53:48;16.30;95.00
15357;DHT22;7778;48.792;9.260;2023-04-09T11:56:34;16.30;92.50
15357;DHT22;7778;48.792;9.260;2023-04-09T11:59:20;16.20;91.40
15357;DHT22;7778;48.792;9.260;2023-04-09T12:02:06;15.40;90.40
15357;DHT22;7778;48.792;9.260;2023-04-09T12:04:53;15.30;90.70
15357;DHT22;7778;48.792;9.260;2023-04-09T12:07:39;15.30;90.50
15357;DHT22;7778;48.792;9.260;2023-04-09T12:10:26;14.80;91.00
15357;DHT22;7778;48.792;9.260;2023-04-09T12:13:12;14.70;91.70
15357;DHT22;7778;48.792;9.260;2023-04-09T12:16:00;14.80;91.10
15357;DHT22;7778;48.792;9.260;2023-04-09T12:18:46;14.90;91.40
15357;DHT22;7778;48.792;9.260;2023-04-09T12:21:47;14.80;91.40
15357;DHT22;7778;48.792;9.260;2023-04-09T12:24:37;15.10;93.40
15357;DHT22;7778;48.792;9.260;2023-04-09T12:27:22;15.40;91.00
15357;DHT22;7778;48.792;9.260;2023-04-09T12:30:09;15.00;91.10
15357;DHT22;7778;48.792;9.260;2023-04-09T12:35:34;15.10;89.80
15357;DHT22;7778;48.792;9.260;2023-04-09T12:38:22;15.40;91.50
15357;DHT22;7778;48.792;9.260;2023-04-09T12:41:08;15.00;89.10
15357;DHT22;7778;48.792;9.260;2023-04-09T12:43:53;15.10;91.20
15357;DHT22;7778;48.792;9.260;2023-04-09T12:46:39;15.50;91.10
15357;DHT22;7778;48.792;9.260;2023-04-09T12:49:24;15.50;89.30
15357;DHT22;7778;48.792;9.260;2023-04-09T12:52:09;15.50;89.20
15357;DHT22;7778;48.792;9.260;2023-04-09T12:54:56;15.20;90.50
15357;DHT22;7778;48.792;9.260;2023-04-09T12:57:43;14.90;90.20
15357;DHT22;7778;48.792;9.260;2023-04-09T13:00:30;14.70;90.80
15357;DHT22;7778;48.792;9.260;2023-04-09T13:03:16;14.60;91.60
15357;DHT22;7778;48.792;9.260;2023-04-09T13:06:02;14.60;90.90
15357;DHT22;7778;48.792;9.260;2023-04-09T13:08:48;14.80;91.30
15357;DHT22;7778;48.792;9.260;2023-04-09T13:11:35;14.80;90.60
15357;DHT22;7778;48.792;9.260;2023-04-09T13:14:20;14.60;91.30
15357;DHT22;7778;48.792;9.260;2023-04-09T13:17:06;14.40;90.00
15357;DHT22;7778;48.792;9.260;2023-04-09T13:19:52;14.40;90.10
15357;DHT22;7778;48.792;9.260;2023-04-09T13:22:37;14.60;90.70
15357;DHT22;7778;48.792;9.260;2023-04-09T13:25:22;15.00;90.60
15357;DHT22;7778;48.792;9.260;2023-04-09T13:28:09;15.10;90.40
15357;DHT22;7778;48.792;9.260;2023-04-09T13:30:55;15.50;90.90
15357;DHT22;7778;48.792;9.260;2023-04-09T13:33:40;15.40;88.60
15357;DHT22;7778;48.792;9.260;2023-04-09T13:36:25;15.20;88.00
15357;DHT22;7778;48.792;9.260;2023-04-09T13:39:12;15.40;89.50
15357;DHT22;7778;48.792;9.260;2023-04-09T13:41:57;15.50;88.10
15357;DHT22;7778;48.792;9.260;2023-04-09T13:44:44;15.40;84.50
15357;DHT22;7778;48.792;9.260;2023-04-09T13:47:29;15.50;81.50
15357;DHT22;7778;48.792;9.260;2023-04-09T13:50:15;15.40;83.60
15357;DHT22;7778;48.792;9.260;2023-04-09T13:53:00;15.20;84.50
15357;DHT22;7778;48.792;9.260;2023-04-09T13:55:48;14.90;85.40
15357;DHT22;7778;48.792;9.260;2023-04-09T13:58:34;14.90;84.70
15357;DHT22;7778;48.792;9.260;2023-04-09T14:01:21;15.10;85.10
15357;DHT22;7778;48.792;9.260;2023-04-09T14:04:07;15.10;85.10
15357;DHT22;7778;48.792;9.260;2023-04-09T14:06:52;14.70;86.00
15357;DHT22;7778;48.792;9.260;2023-04-09T14:09:38;14.90;85.50
15357;DHT22;7778;48.792;9.260;2023-04-09T14:12:24;15.00;83.40
15357;DHT22;7778;48.792;9.260;2023-04-09T14:15:10;14.90;85.80
15357;DHT22;7778;48.792;9.260;2023-04-09T14:17:57;14.70;86.90
15357;DHT22;7778;48.792;9.260;2023-04-09T14:20:42;14.50;86.30
15357;DHT22;7778;48.792;9.260;2023-04-09T14:23:28;14.40;87.80
15357;DHT22;7778;48.792;9.260;2023-04-09T14:26:13;14.40;89.60
15357;DHT22;7778;48.792;9.260;2023-04-09T14:28:59;14.20;90.00
15357;DHT22;7778;48.792;9.260;2023-04-09T14:31:45;14.20;89.50
15357;DHT22;7778;48.792;9.260;2023-04-09T14:34:32;14.20;90.10
15357;DHT22;7778;48.792;9.260;2023-04-09T14:37:18;14.30;89.70
15357;DHT22;7778;48.792;9.260;2023-04-09T14:40:05;14.00;89.80
15357;DHT22;7778;48.792;9.260;2023-04-09T14:42:52;13.80;89.80
15357;DHT22;7778;48.792;9.260;2023-04-09T14:45:37;13.80;89.20
15357;DHT22;7778;48.792;9.260;2023-04-09T14:48:23;14.00;88.70
15357;DHT22;7778;48.792;9.260;2023-04-09T14:51:10;14.20;90.70
15357;DHT22;7778;48.792;9.260;2023-04-09T14:53:56;14.30;90.90
15357;DHT22;7778;48.792;9.260;2023-04-09T14:56:42;14.10;91.00
15357;DHT22;7778;48.792;9.260;2023-04-09T14:59:27;14.10;90.80
15357;DHT22;7778;48.792;9.260;2023-04-09T15:02:13;13.80;90.90
15357;DHT22;7778;48.792;9.260;2023-04-09T15:04:59;13.60;91.00
15357;DHT22;7778;48.792;9.260;2023-04-09T15:07:46;13.40;90.20
15357;DHT22;7778;48.792;9.260;2023-04-09T15:10:31;13.30;91.30
15357;DHT22;7778;48.792;9.260;2023-04-09T15:13:17;13.30;91.40
15357;DHT22;7778;48.792;9.260;2023-04-09T15:16:03;13.40;91.50
15357;DHT22;7778;48.792;9.260;2023-04-09T15:18:49;13.40;90.60
15357;DHT22;7778;48.792;9.260;2023-04-09T15:21:35;13.60;89.90
15357;DHT22;7778;48.792;9.260;2023-04-09T15:24:22;13.80;88.80
15357;DHT22;7778;48.792;9.260;2023-04-09T15:27:07;13.90;87.80
15357;DHT22;7778;48.792;9.260;2023-04-09T15:29:53;14.00;85.30
15357;DHT22;7778;48.792;9.260;2023-04-09T15:32:38;14.20;88.70
15357;DHT22;7778;48.792;9.260;2023-04-09T15:35:23;14.40;85.90
15357;DHT22;7778;48.792;9.260;2023-04-09T15:38:12;14.40;87.90
15357;DHT22;7778;48.792;9.260;2023-04-09T15:41:00;14.10;88.10
15357;DHT22;7778;48.792;9.260;2023-04-09T15:43:45;14.30;87.60
15357;DHT22;7778;48.792;9.260;2023-04-09T15:46:30;14.20;88.60
15357;DHT22;7778;48.792;9.260;2023-04-09T15:49:16;14.10;88.70
15357;DHT22;7778;48.792;9.260;2023-04-09T15:52:05;14.10;89.20
15357;DHT22;7778;48.792;9.260;2023-04-09T15:54:51;14.20;90.30
15357;DHT22;7778;48.792;9.260;2023-04-09T15:57:38;14.30;90.10
15357;DHT22;7778;48.792;9.260;2023-04-09T16:00:24;14.30;91.10
15357;DHT22;7778;48.792;9.260;2023-04-09T16:03:09;14.30;89.20
15357;DHT22;7778;48.792;9.260;2023-04-09T16:05:55;14.10;89.20
15357;DHT22;7778;48.792;9.260;2023-04-09T16:08:41;14.00;89.30
15357;DHT22;7778;48.792;9.260;2023-04-09T16:11:27;13.80;89.50
15357;DHT22;7778;48.792;9.260;2023-04-09T16:14:14;13.70;88.70
15357;DHT22;7778;48.792;9.260;2023-04-09T16:16:59;13.80;90.70
15357;DHT22;7778;48.792;9.260;2023-04-09T16:19:44;13.90;90.60
15357;DHT22;7778;48.792;9.260;2023-04-09T16:22:30;13.90;89.70
15357;DHT22;7778;48.792;9.260;2023-04-09T16:25:17;13.90;90.00
15357;DHT22;7778;48.792;9.260;2023-04-09T16:28:03;13.90;90.10
15357;DHT22;7778;48.792;9.260;2023-04-09T16:30:51;14.00;89.70
15357;DHT22;7778;48.792;9.260;2023-04-09T16:33:36;13.90;89.70
15357;DHT22;7778;48.792;9.260;2023-04-09T16:36:22;13.90;89.00
15357;DHT22;7778;48.792;9.260;2023-04-09T16:39:07;13.90;89.60
15357;DHT22;7778;48.792;9.260;2023-04-09T16:41:53;14.00;88.60
15357;DHT22;7778;48.792;9.260;2023-04-09T16:44:41;14.00;89.10
15357;DHT22;7778;48.792;9.260;2023-04-09T16:47:28;13.90;89.00
15357;DHT22;7778;48.792;9.260;2023-04-09T16:50:14;13.90;88.30
15357;DHT22;7778;48.792;9.260;2023-04-09T16:52:59;13.80;89.80
15357;DHT22;7778;48.792;9.260;2023-04-09T16:55:47;13.70;89.00
15357;DHT22;7778;48.792;9.260;2023-04-09T16:58:33;13.60;89.70
15357;DHT22;7778;48.792;9.260;2023-04-09T17:01:18;13.60;89.50
15357;DHT22;7778;48.792;9.260;2023-04-09T17:04:05;13.60;89.10
15357;DHT22;7778;48.792;9.260;2023-04-09T17:06:51;13.60;90.00
15357;DHT22;7778;48.792;9.260;2023-04-09T17:09:37;13.50;89.60
15357;DHT22;7778;48.792;9.260;2023-04-09T17:12:22;13.50;89.10
15357;DHT22;7778;48.792;9.260;2023-04-09T17:15:10;13.40;90.10
15357;DHT22;7778;48.792;9.260;2023-04-09T17:17:56;13.40;90.10
15357;DHT22;7778;48.792;9.260;2023-04-09T17:20:43;13.40;90.10
15357;DHT22;7778;48.792;9.260;2023-04-09T17:23:28;13.30;90.10
15357;DHT22;7778;48.792;9.260;2023-04-09T17:26:14;13.20;89.50
15357;DHT22;7778;48.792;9.260;2023-04-09T17:28:59;13.20;90.20
15357;DHT22;7778;48.792;9.260;2023-04-09T17:31:48;13.00;90.00
15357;DHT22;7778;48.792;9.260;2023-04-09T17:34:35;13.00;90.10
15357;DHT22;7778;48.792;9.260;2023-04-09T17:37:22;13.00;90.40
15357;DHT22;7778;48.792;9.260;2023-04-09T17:40:08;13.00;90.50
15357;DHT22;7778;48.792;9.260;2023-04-09T17:42:55;12.80;90.30
15357;DHT22;7778;48.792;9.260;2023-04-09T17:45:41;12.70;90.60
15357;DHT22;7778;48.792;9.260;2023-04-09T17:48:29;12.70;90.90
15357;DHT22;7778;48.792;9.260;2023-04-09T17:51:18;12.60;91.00
15357;DHT22;7778;48.792;9.260;2023-04-09T17:54:05;12.60;91.20
15357;DHT22;7778;48.792;9.260;2023-04-09T17:56:51;12.50;91.60
15357;DHT22;7778;48.792;9.260;2023-04-09T17:59:40;12.40;91.80
15357;DHT22;7778;48.792;9.260;2023-04-09T18:02:25;12.30;91.80